Congers, New York
Current Conditions -  °F | °C
As of 1:56 AM on Saturday 25 Oct 2014 (Local Time) from KHPN Reporting Station
Clear Clear  
Wind Chill: 45°   Ceiling: Unl
Heat Index: 47°   Visibility: 10mi
Dew Point: 43°   Wind: 5mph
Humidity: 86%   Direction: 330°NNW
Pressure: 29.83"   Gusts: NA
Location:  41.15°N, 73.95°W
Report Text: KHPN 250556Z 33004KT 10SM CLR 08/06 A2983 RMK AO2 SLP105 T00830061 10100 20061 53002
Loading
Personal Weather Stations






























Interactive Weather Map
Tropical Storm Tracking
New forecast layout! Learn more

10-Day Weather Forecast

Advertisements
Track Severe Weather on mobile